Purdys, New York
Current Conditions -  °F | °C
As of 12:53 AM on Sunday 23 Nov 2014 (Local Time) from KDXR Reporting Station
Clear Clear  
Wind Chill: 37°   Ceiling: Unl
Heat Index: 40°   Visibility: 10mi
Dew Point: 17°   Wind: 5mph
Humidity: 40%   Direction: 270°W
Pressure: 30.17"   Gusts: NA
Location:  41.33°N, 73.66°W
Report Text: KDXR 230553Z AUTO 27004KT 10SM CLR 04/M08 A3017 RMK AO2 SLP217 T00441083 10050 20044 55005
Loading
Personal Weather Stations






























Interactive Weather Map New forecast layout! Learn more

10-Day Weather Forecast

Advertisements
Track Severe Weather on mobile